createdAt,value
2018-12-25T00:00:16.813Z,9.13
2018-12-25T00:03:19.458Z,7.23
2018-12-25T00:06:19.639Z,6.97
2018-12-25T00:09:21.118Z,6.57
2018-12-25T00:12:20.390Z,6.27
2018-12-25T00:15:19.884Z,6.73
2018-12-25T00:18:19.521Z,5.97
2018-12-25T00:21:19.427Z,7.50
2018-12-25T00:24:19.302Z,6.13
2018-12-25T00:27:19.881Z,5.77
2018-12-25T00:30:19.176Z,6.90
2018-12-25T00:33:19.123Z,7.90
2018-12-25T00:36:18.430Z,6.63
2018-12-25T00:39:18.650Z,7.83
2018-12-25T00:42:18.505Z,7.23
2018-12-25T00:45:21.940Z,7.57
2018-12-25T00:48:22.863Z,6.23
2018-12-25T00:51:35.033Z,8.50
2018-12-25T00:54:34.979Z,8.73
2018-12-25T00:57:35.103Z,7.47
2018-12-25T01:00:36.242Z,7.33
2018-12-25T01:03:37.806Z,6.97
2018-12-25T01:06:37.366Z,7.30
2018-12-25T01:09:36.524Z,8.87
2018-12-25T01:12:36.887Z,6.93
2018-12-25T01:15:36.330Z,6.50
2018-12-25T01:18:38.462Z,7.23
2018-12-25T01:21:38.449Z,7.67
2018-12-25T01:24:37.662Z,6.17
2018-12-25T01:27:38.841Z,5.30
2018-12-25T01:30:38.314Z,6.33
2018-12-25T01:33:37.887Z,6.33
2018-12-25T01:36:38.417Z,6.27
2018-12-25T01:39:43.937Z,5.60
2018-12-25T01:42:44.175Z,5.90
2018-12-25T01:45:45.252Z,5.33
2018-12-25T01:48:45.089Z,5.40
2018-12-25T01:51:48.990Z,5.83
2018-12-25T01:54:48.173Z,5.83
2018-12-25T01:57:54.436Z,6.97
2018-12-25T02:00:53.595Z,7.10
2018-12-25T02:03:53.953Z,5.27
2018-12-25T02:06:56.415Z,5.97
2018-12-25T02:09:55.854Z,5.67
2018-12-25T02:12:58.912Z,6.10
2018-12-25T02:15:59.234Z,5.80
2018-12-25T02:19:03.149Z,5.73
2018-12-25T02:22:02.464Z,5.07
2018-12-25T02:25:05.844Z,5.33
2018-12-25T02:28:05.224Z,6.33
2018-12-25T02:31:04.743Z,5.73
2018-12-25T02:34:04.114Z,5.27
2018-12-25T02:37:08.490Z,5.40
2018-12-25T02:40:07.734Z,5.77
2018-12-25T02:43:10.122Z,5.67
2018-12-25T02:46:10.808Z,4.97
2018-12-25T02:49:10.901Z,4.90
2018-12-25T02:52:12.627Z,5.33
2018-12-25T02:55:12.046Z,5.57
2018-12-25T02:58:13.426Z,4.57
2018-12-25T03:01:12.815Z,5.07
2018-12-25T03:04:14.334Z,5.73
2018-12-25T03:07:13.794Z,4.40
2018-12-25T03:10:13.295Z,4.90
2018-12-25T03:13:12.578Z,6.17
2018-12-25T03:16:12.127Z,5.97
2018-12-25T03:19:11.577Z,4.23
2018-12-25T03:22:14.386Z,4.73
2018-12-25T03:25:26.258Z,5.10
2018-12-25T03:28:25.511Z,4.90
2018-12-25T03:31:25.193Z,4.57
2018-12-25T03:34:24.504Z,4.50
2018-12-25T03:37:23.802Z,5.57
2018-12-25T03:40:24.331Z,5.47
2018-12-25T03:43:28.022Z,5.60
2018-12-25T03:46:27.285Z,4.60
2018-12-25T03:49:31.430Z,5.50
2018-12-25T03:52:30.947Z,4.90
2018-12-25T03:55:30.380Z,5.10
2018-12-25T03:58:29.605Z,5.47
2018-12-25T04:01:29.133Z,4.70
2018-12-25T04:04:29.089Z,4.83
2018-12-25T04:07:38.024Z,5.80
2018-12-25T04:10:37.225Z,4.60
2018-12-25T04:13:38.173Z,5.33
2018-12-25T04:16:37.421Z,3.97
2018-12-25T04:19:37.754Z,4.20
2018-12-25T04:22:37.236Z,4.83
2018-12-25T04:25:42.543Z,4.23
2018-12-25T04:28:41.951Z,3.93
2018-12-25T04:31:41.206Z,4.63
2018-12-25T04:34:40.863Z,4.57
2018-12-25T04:37:43.943Z,5.37
2018-12-25T04:40:43.905Z,4.53
2018-12-25T04:43:55.977Z,5.00
2018-12-25T04:46:55.290Z,4.30
2018-12-25T04:49:58.960Z,4.87
2018-12-25T04:52:58.311Z,4.77
2018-12-25T04:55:58.630Z,5.37
2018-12-25T04:58:58.976Z,4.83
2018-12-25T05:01:58.547Z,4.80
2018-12-25T05:04:57.703Z,4.47
2018-12-25T05:08:01.108Z,4.63
2018-12-25T05:11:01.699Z,4.87
2018-12-25T05:14:01.241Z,4.50
2018-12-25T05:17:00.651Z,4.37
2018-12-25T05:20:00.150Z,5.37
2018-12-25T05:22:59.569Z,4.10
2018-12-25T05:26:01.995Z,4.23
2018-12-25T05:29:01.447Z,4.60
2018-12-25T05:32:00.823Z,4.20
2018-12-25T05:35:00.317Z,4.93
2018-12-25T05:38:02.189Z,6.10
2018-12-25T05:41:03.406Z,4.40
2018-12-25T05:44:03.566Z,5.20
2018-12-25T05:47:07.239Z,5.17
2018-12-25T05:50:07.310Z,4.53
2018-12-25T05:53:07.861Z,5.30
2018-12-25T05:56:07.295Z,4.40
2018-12-25T05:59:11.609Z,4.50
2018-12-25T06:02:10.797Z,4.97
2018-12-25T06:05:11.146Z,4.90
2018-12-25T06:08:10.301Z,6.07
2018-12-25T06:11:13.469Z,4.47
2018-12-25T06:14:13.885Z,4.50
2018-12-25T06:17:13.135Z,3.93
2018-12-25T06:20:12.585Z,4.63
2018-12-25T06:23:11.814Z,4.70
2018-12-25T06:26:11.935Z,4.93
2018-12-25T06:29:11.033Z,5.27
2018-12-25T06:32:10.559Z,5.77
2018-12-25T06:35:09.848Z,4.37
2018-12-25T06:38:10.250Z,4.03
2018-12-25T06:41:09.445Z,5.10
2018-12-25T06:44:09.243Z,4.13
2018-12-25T06:47:08.488Z,6.73
2018-12-25T06:50:07.878Z,5.17
2018-12-25T06:53:07.357Z,6.30
2018-12-25T06:56:06.865Z,5.43
2018-12-25T06:59:06.718Z,4.90
2018-12-25T07:02:08.033Z,5.13
2018-12-25T07:05:08.022Z,5.00
2018-12-25T07:08:07.895Z,5.40
2018-12-25T07:11:08.238Z,5.20
2018-12-25T07:14:08.240Z,6.47
2018-12-25T07:17:14.064Z,4.40
2018-12-25T07:20:13.452Z,4.43
2018-12-25T07:23:17.961Z,5.63
2018-12-25T07:26:20.229Z,4.93
2018-12-25T07:29:19.535Z,5.13
2018-12-25T07:32:18.863Z,6.07
2018-12-25T07:35:18.216Z,5.37
2018-12-25T07:38:21.897Z,5.83
2018-12-25T07:41:21.440Z,4.47
2018-12-25T07:44:26.695Z,4.63
2018-12-25T07:47:26.190Z,4.97
2018-12-25T07:50:26.327Z,5.87
2018-12-25T07:53:26.266Z,5.30
2018-12-25T07:56:26.582Z,5.73
2018-12-25T07:59:25.982Z,4.33
2018-12-25T08:02:28.534Z,5.47
2018-12-25T08:05:27.781Z,4.47
2018-12-25T08:08:27.232Z,4.90
2018-12-25T08:11:26.602Z,5.87
2018-12-25T08:14:25.962Z,5.00
2018-12-25T08:17:25.356Z,6.23
2018-12-25T08:20:28.586Z,6.57
2018-12-25T08:23:28.472Z,5.70
2018-12-25T08:26:27.767Z,5.83
2018-12-25T08:29:28.397Z,6.10
2018-12-25T08:32:27.780Z,6.37
2018-12-25T08:35:28.523Z,7.23
2018-12-25T08:38:28.693Z,5.33
2018-12-25T08:41:28.247Z,6.83
2018-12-25T08:44:28.655Z,5.93
2018-12-25T08:47:28.967Z,6.57
2018-12-25T08:50:40.245Z,6.63
2018-12-25T08:53:40.571Z,5.80
2018-12-25T08:56:40.234Z,6.13
2018-12-25T08:59:43.891Z,8.30
2018-12-25T09:02:44.171Z,5.70
2018-12-25T09:05:49.758Z,5.90
2018-12-25T09:08:49.799Z,6.33
2018-12-25T09:11:55.526Z,6.37
2018-12-25T09:14:55.447Z,4.87
2018-12-25T09:17:54.767Z,5.30
2018-12-25T09:20:54.831Z,5.57
2018-12-25T09:23:54.066Z,7.47
2018-12-25T09:26:56.164Z,6.57
2018-12-25T09:29:57.535Z,6.50
2018-12-25T09:32:57.495Z,5.73
2018-12-25T09:35:58.484Z,4.90
2018-12-25T09:38:57.719Z,5.30
2018-12-25T09:41:57.291Z,5.53
2018-12-25T09:44:56.628Z,6.07
2018-12-25T09:47:56.119Z,5.10
2018-12-25T09:50:56.185Z,5.60
2018-12-25T09:53:56.128Z,4.77
2018-12-25T09:56:55.691Z,4.73
2018-12-25T09:59:56.052Z,5.47
2018-12-25T10:02:55.363Z,5.63
2018-12-25T10:05:54.805Z,5.43
2018-12-25T10:09:00.209Z,4.90
2018-12-25T10:11:59.681Z,5.43
2018-12-25T10:15:02.859Z,6.50
2018-12-25T10:18:02.397Z,5.43
2018-12-25T10:21:01.920Z,4.60
2018-12-25T10:24:01.319Z,5.63
2018-12-25T10:27:02.109Z,5.27
2018-12-25T10:30:02.268Z,5.77
2018-12-25T10:33:01.700Z,5.97
2018-12-25T10:36:01.107Z,6.40
2018-12-25T10:39:00.465Z,6.27
2018-12-25T10:41:59.837Z,5.50
2018-12-25T10:45:05.571Z,6.60
2018-12-25T10:48:04.851Z,5.83
2018-12-25T10:51:04.207Z,5.90
2018-12-25T10:54:03.660Z,5.37
2018-12-25T10:57:03.630Z,5.87
2018-12-25T11:00:03.219Z,6.40
2018-12-25T11:03:02.900Z,5.23
2018-12-25T11:06:02.088Z,4.77
2018-12-25T11:09:02.025Z,4.97
2018-12-25T11:12:02.424Z,5.07
2018-12-25T11:15:01.762Z,6.47
2018-12-25T11:18:01.395Z,5.37
2018-12-25T11:21:04.068Z,5.20
2018-12-25T11:24:04.766Z,5.93
2018-12-25T11:27:04.721Z,5.63
2018-12-25T11:30:05.992Z,6.03
2018-12-25T11:33:05.361Z,6.00
2018-12-25T11:36:04.827Z,7.03
2018-12-25T11:39:08.011Z,8.30
2018-12-25T11:42:07.343Z,9.70
2018-12-25T11:45:08.986Z,9.77
2018-12-25T11:48:09.147Z,10.47
2018-12-25T11:51:09.633Z,12.33
2018-12-25T11:54:10.380Z,13.20
2018-12-25T11:57:10.364Z,10.10
2018-12-25T12:00:10.664Z,11.47
2018-12-25T12:03:10.254Z,12.77
2018-12-25T12:06:09.515Z,11.10
2018-12-25T12:09:09.567Z,11.07
2018-12-25T12:12:09.792Z,10.70
2018-12-25T12:15:09.726Z,12.90
2018-12-25T12:18:09.059Z,13.77
2018-12-25T12:21:09.000Z,11.30
2018-12-25T12:24:08.190Z,9.27
2018-12-25T12:27:08.711Z,13.87
2018-12-25T12:30:08.437Z,12.07
2018-12-25T12:33:09.602Z,11.67
2018-12-25T12:36:10.423Z,15.47
2018-12-25T12:39:09.766Z,12.70
2018-12-25T12:42:10.461Z,12.77
2018-12-25T12:45:09.826Z,12.43
2018-12-25T12:48:09.357Z,13.97
2018-12-25T12:51:08.770Z,14.60
2018-12-25T12:54:10.045Z,13.03
2018-12-25T12:57:09.765Z,12.33
2018-12-25T13:00:10.144Z,12.93
2018-12-25T13:03:09.574Z,14.53
2018-12-25T13:06:11.576Z,12.73
2018-12-25T13:09:10.836Z,17.83
2018-12-25T13:12:10.659Z,12.50
2018-12-25T13:15:14.205Z,15.07
2018-12-25T13:18:14.736Z,11.73
2018-12-25T13:21:14.671Z,12.23
2018-12-25T13:24:13.940Z,11.87
2018-12-25T13:27:14.207Z,12.30
2018-12-25T13:30:18.120Z,12.90
2018-12-25T13:33:17.452Z,14.37
2018-12-25T13:36:19.283Z,12.67
2018-12-25T13:39:18.652Z,11.27
2018-12-25T13:42:20.051Z,12.57
2018-12-25T13:45:19.548Z,11.90
2018-12-25T13:48:23.901Z,13.37
2018-12-25T13:51:23.986Z,14.23
2018-12-25T13:54:24.874Z,11.77
2018-12-25T13:57:24.799Z,10.23
2018-12-25T14:03:54.450Z,11.20
2018-12-25T14:06:54.772Z,14.23
2018-12-25T14:09:54.217Z,10.90
2018-12-25T14:12:57.899Z,9.57
2018-12-25T14:15:57.997Z,12.27
2018-12-25T14:19:00.402Z,10.10
2018-12-25T14:21:59.834Z,10.70
2018-12-25T14:25:02.218Z,10.17
2018-12-25T14:28:01.695Z,10.83
2018-12-25T14:31:01.030Z,11.60
2018-12-25T14:34:01.643Z,9.93
2018-12-25T14:37:04.053Z,10.17
2018-12-25T14:40:04.344Z,10.37
2018-12-25T14:43:03.750Z,9.80
2018-12-25T14:46:03.098Z,10.50
2018-12-25T14:49:07.730Z,11.90
2018-12-25T14:52:07.142Z,12.47
2018-12-25T14:55:06.505Z,9.43
2018-12-25T14:58:07.036Z,10.90
2018-12-25T15:01:06.355Z,10.50
2018-12-25T15:04:05.936Z,11.73
2018-12-25T15:07:06.459Z,10.87
2018-12-25T15:10:06.445Z,11.03
2018-12-25T15:13:05.817Z,11.13
2018-12-25T15:16:05.530Z,14.33
2018-12-25T15:19:04.787Z,9.83
2018-12-25T15:22:04.288Z,11.43
2018-12-25T15:25:08.149Z,12.73
2018-12-25T15:28:09.446Z,9.70
2018-12-25T15:31:08.772Z,13.00
2018-12-25T15:34:08.214Z,11.23
2018-12-25T15:37:08.875Z,11.13
2018-12-25T15:40:09.123Z,9.93
2018-12-25T15:43:15.026Z,10.57
2018-12-25T15:46:14.880Z,10.50
2018-12-25T15:49:15.262Z,12.33
2018-12-25T15:52:14.479Z,9.37
2018-12-25T15:55:15.823Z,10.07
2018-12-25T15:58:19.317Z,9.83
2018-12-25T16:01:18.643Z,11.63
2018-12-25T16:04:20.038Z,9.37
2018-12-25T16:07:19.868Z,10.87
2018-12-25T16:10:19.267Z,11.10
2018-12-25T16:13:31.315Z,11.43
2018-12-25T16:16:31.734Z,9.70
2018-12-25T16:19:31.167Z,11.57
2018-12-25T16:22:38.743Z,11.30
2018-12-25T16:25:38.638Z,10.97
2018-12-25T16:28:38.609Z,11.37
2018-12-25T16:31:38.037Z,10.37
2018-12-25T16:34:38.578Z,9.80
2018-12-25T16:37:38.821Z,11.27
2018-12-25T16:40:38.177Z,10.80
2018-12-25T16:43:37.594Z,12.07
2018-12-25T16:46:39.245Z,9.77
2018-12-25T16:49:40.922Z,10.50
2018-12-25T16:52:42.852Z,9.70
2018-12-25T16:55:42.542Z,10.60
2018-12-25T16:58:42.767Z,10.00
2018-12-25T17:01:42.320Z,11.23
2018-12-25T17:04:41.913Z,10.70
2018-12-25T17:07:41.467Z,10.03
2018-12-25T17:10:40.738Z,9.27
2018-12-25T17:13:40.155Z,10.10
2018-12-25T17:16:43.263Z,8.87
2018-12-25T17:19:42.927Z,10.13
2018-12-25T17:22:42.502Z,9.73
2018-12-25T17:25:42.985Z,8.93
2018-12-25T17:28:42.595Z,9.53
2018-12-25T17:31:42.339Z,8.27
2018-12-25T17:34:46.843Z,9.23
2018-12-25T17:37:47.472Z,8.37
2018-12-25T17:40:48.378Z,10.40
2018-12-25T17:43:47.695Z,11.90
2018-12-25T17:46:47.526Z,10.03
2018-12-25T17:49:47.135Z,8.43
2018-12-25T17:52:48.613Z,9.80
2018-12-25T17:55:48.746Z,10.57
2018-12-25T17:58:49.576Z,9.30
2018-12-25T18:01:50.090Z,9.03
2018-12-25T18:04:49.359Z,9.70
2018-12-25T18:07:53.286Z,8.33
2018-12-25T18:10:54.714Z,11.00
2018-12-25T18:13:53.948Z,10.80
2018-12-25T18:16:54.065Z,9.63
2018-12-25T18:19:53.452Z,9.17
2018-12-25T18:22:54.421Z,9.57
2018-12-25T18:25:54.100Z,8.87
2018-12-25T18:28:55.694Z,9.47
2018-12-25T18:31:54.906Z,9.43
2018-12-25T18:34:54.653Z,9.53
2018-12-25T18:37:53.872Z,9.10
2018-12-25T18:40:55.907Z,10.50
2018-12-25T18:43:55.950Z,9.17
2018-12-25T18:46:58.299Z,9.20
2018-12-25T18:49:57.542Z,8.67
2018-12-25T18:52:57.377Z,10.47
2018-12-25T18:55:57.230Z,10.20
2018-12-25T18:58:57.537Z,9.97
2018-12-25T19:01:56.933Z,9.03
2018-12-25T19:04:57.723Z,9.27
2018-12-25T19:07:57.645Z,10.20
2018-12-25T19:10:57.945Z,9.80
2018-12-25T19:13:58.352Z,11.10
2018-12-25T19:16:57.802Z,10.63
2018-12-25T19:19:57.902Z,10.53
2018-12-25T19:22:57.841Z,10.00
2018-12-25T19:25:59.115Z,9.43
2018-12-25T19:28:59.502Z,9.67
2018-12-25T19:31:58.874Z,9.40
2018-12-25T19:34:58.449Z,9.67
2018-12-25T19:37:57.881Z,10.03
2018-12-25T19:41:00.257Z,8.87
2018-12-25T19:44:00.722Z,10.00
2018-12-25T19:47:00.137Z,10.03
2018-12-25T19:50:00.262Z,8.87
2018-12-25T19:53:00.304Z,8.90
2018-12-25T19:56:01.626Z,10.60
2018-12-25T19:59:01.880Z,10.33
2018-12-25T20:02:01.676Z,10.37
2018-12-25T20:08:17.922Z,9.27
2018-12-25T20:13:34.012Z,9.43
2018-12-25T20:18:46.182Z,9.97
2018-12-25T20:24:08.332Z,11.33
2018-12-25T20:27:21.002Z,10.50
2018-12-25T20:31:05.600Z,9.40
2018-12-25T20:34:37.440Z,12.07
2018-12-25T20:40:11.636Z,10.23
2018-12-25T20:47:33.950Z,12.83
2018-12-25T20:52:08.406Z,12.47
2018-12-25T20:57:23.242Z,11.80
2018-12-25T21:00:34.383Z,10.67
2018-12-25T21:06:06.233Z,10.90
2018-12-25T21:09:16.506Z,11.13
2018-12-25T21:14:43.364Z,11.30
2018-12-25T21:18:12.829Z,12.27
2018-12-25T21:21:38.734Z,11.27
2018-12-25T21:24:49.684Z,12.30
2018-12-25T21:27:47.991Z,11.57
2018-12-25T21:30:48.711Z,10.93
2018-12-25T21:33:48.015Z,11.30
2018-12-25T21:36:49.963Z,13.23
2018-12-25T21:39:49.913Z,11.70
2018-12-25T21:42:50.674Z,12.93
2018-12-25T21:45:50.271Z,12.43
2018-12-25T21:48:50.076Z,11.43
2018-12-25T21:51:49.507Z,11.37
2018-12-25T21:54:49.985Z,11.17
2018-12-25T21:57:51.681Z,11.47
2018-12-25T22:00:52.293Z,9.53
2018-12-25T22:03:51.702Z,10.63
2018-12-25T22:06:52.054Z,11.87
2018-12-25T22:09:52.122Z,10.13
2018-12-25T22:12:51.516Z,12.83
2018-12-25T22:15:51.038Z,11.57
2018-12-25T22:18:51.406Z,11.90
2018-12-25T22:21:50.684Z,10.33
2018-12-25T22:24:53.663Z,11.50
2018-12-25T22:27:53.337Z,10.40
2018-12-25T22:30:56.210Z,10.80
2018-12-25T22:33:55.589Z,12.13
2018-12-25T22:36:55.079Z,10.50
2018-12-25T22:39:54.481Z,10.23
2018-12-25T22:42:54.844Z,10.53
2018-12-25T22:45:54.134Z,10.67
2018-12-25T22:48:54.897Z,10.77
2018-12-25T22:51:54.968Z,10.37
2018-12-25T22:54:54.401Z,10.80
2018-12-25T22:57:54.569Z,10.07
2018-12-25T23:00:54.632Z,10.77
2018-12-25T23:03:56.010Z,11.03
2018-12-25T23:06:57.623Z,10.37
2018-12-25T23:09:56.862Z,9.80
2018-12-25T23:13:00.323Z,11.50
2018-12-25T23:16:00.721Z,10.53
2018-12-25T23:19:00.214Z,8.93
2018-12-25T23:22:03.394Z,9.67
2018-12-25T23:25:03.033Z,10.60
2018-12-25T23:28:08.675Z,10.83
2018-12-25T23:31:08.792Z,9.10
2018-12-25T23:34:08.763Z,10.70
2018-12-25T23:37:09.198Z,8.20
2018-12-25T23:40:14.467Z,8.70
2018-12-25T23:43:14.394Z,9.13
2018-12-25T23:46:13.823Z,9.30
2018-12-25T23:49:13.627Z,10.07
2018-12-25T23:52:14.238Z,9.70
2018-12-25T23:55:14.197Z,9.57
2018-12-25T23:58:14.757Z,8.97
